University of Nebraska, Nebraska
Current Conditions -  °F | °C
As of 6:54 AM on Friday 31 Oct 2014 (Local Time) from KLNK Reporting Station
Clear Clear  
Wind Chill: 17°   Ceiling: Unl
Heat Index: 28°   Visibility: 10mi
Dew Point: 20°   Wind: 14mph
Humidity: 72%   Direction: 360°N
Pressure: 30.55"   Gusts: NA
Location:  40.8185°N, 96.71°W
Report Text: KLNK 311154Z 36012KT 10SM CLR M02/M07 A3055 RMK AO2 SLP354 T10221067 10050 21022 53022
Loading
Personal Weather Stations






























Interactive Weather Map
Tropical Storm Tracking
New forecast layout! Learn more

10-Day Weather Forecast

Advertisements
Track Severe Weather on mobile